Time;durP1;ratioP1;P1;durP2;ratioP2;P2;SDS_P1;SDS_P2;PMS_P1;PMS_P2;Temp;Humidity;BMP_temperature;BMP_pressure;BME280_temperature;BME280_humidity;BME280_pressure;Samples;Min_cycle;Max_cycle;Signal;HPM_P1;HPM_P2
2022/11/02 00:00:56;;;;;;;;;;;15.70;99.90;;;;;;5074671;28;19912;-71
2022/11/02 00:03:22;;;;;;;;;;;15.80;99.90;;;;;;5075444;28;20361;-71
2022/11/02 00:05:48;;;;;;;;;;;15.90;99.90;;;;;;5074869;28;19908;-73
2022/11/02 00:08:14;;;;;;;;;;;15.90;99.90;;;;;;5076538;28;19908;-71
2022/11/02 00:10:39;;;;;;;;;;;15.90;99.90;;;;;;5075654;28;19915;-71
2022/11/02 00:13:05;;;;;;;;;;;15.90;99.90;;;;;;5074558;28;20327;-74
2022/11/02 00:15:33;;;;;;;;;;;15.80;99.90;;;;;;5055656;28;19959;-71
2022/11/02 00:18:02;;;;;;;;;;;15.80;99.90;;;;;;5056120;28;19979;-71
2022/11/02 00:20:28;;;;;;;;;;;15.70;99.90;;;;;;5038290;28;19909;-71
2022/11/02 00:22:56;;;;;;;;;;;15.70;99.90;;;;;;5056332;28;19955;-71
2022/11/02 00:25:22;;;;;;;;;;;15.80;99.90;;;;;;5056195;28;19940;-71
2022/11/02 00:27:48;;;;;;;;;;;15.80;99.90;;;;;;5075595;28;19908;-72
2022/11/02 00:30:14;;;;;;;;;;;15.80;99.90;;;;;;5073590;28;20290;-72
2022/11/02 00:32:40;;;;;;;;;;;15.80;99.90;;;;;;5057949;28;19977;-72
2022/11/02 00:35:06;;;;;;;;;;;15.80;99.90;;;;;;5057842;28;19920;-71
2022/11/02 00:37:31;;;;;;;;;;;15.80;99.90;;;;;;5075256;28;19978;-70
2022/11/02 00:39:57;;;;;;;;;;;15.80;99.90;;;;;;5075653;28;19909;-71
2022/11/02 00:42:23;;;;;;;;;;;15.80;99.90;;;;;;5075466;28;19908;-71
2022/11/02 00:44:48;;;;;;;;;;;15.70;99.90;;;;;;5074414;28;20277;-74
2022/11/02 00:47:14;;;;;;;;;;;15.70;99.90;;;;;;5071954;28;19909;-73
2022/11/02 00:49:40;;;;;;;;;;;15.70;99.90;;;;;;5061788;28;20354;-71
2022/11/02 00:52:06;;;;;;;;;;;15.70;99.90;;;;;;5067288;28;20275;-71
2022/11/02 00:54:31;;;;;;;;;;;15.70;99.90;;;;;;5077783;28;19958;-71
2022/11/02 00:56:57;;;;;;;;;;;15.80;99.90;;;;;;5072636;28;20282;-72
2022/11/02 00:59:23;;;;;;;;;;;15.80;99.90;;;;;;5079800;28;20313;-71
2022/11/02 01:01:49;;;;;;;;;;;15.70;99.90;;;;;;5079908;28;19916;-71
2022/11/02 01:04:16;;;;;;;;;;;15.70;99.90;;;;;;5068055;28;19912;-71
2022/11/02 01:06:42;;;;;;;;;;;15.60;99.90;;;;;;5079931;28;19912;-71
2022/11/02 01:09:08;;;;;;;;;;;15.60;99.90;;;;;;5088831;28;19978;-71
2022/11/02 01:11:34;;;;;;;;;;;15.60;99.90;;;;;;5084772;28;19983;-70
2022/11/02 01:14:00;;;;;;;;;;;15.60;99.90;;;;;;5081080;28;20393;-71
2022/11/02 01:16:25;;;;;;;;;;;15.50;99.90;;;;;;5085670;28;20454;-72
2022/11/02 01:18:52;;;;;;;;;;;15.50;99.90;;;;;;5075856;28;19923;-73
2022/11/02 01:21:18;;;;;;;;;;;15.50;99.90;;;;;;5082846;28;20282;-71
2022/11/02 01:23:43;;;;;;;;;;;15.40;99.90;;;;;;5074220;28;19915;-71
2022/11/02 01:26:42;;;;;;;;;;;15.40;99.90;;;;;;5037948;28;19975;-71
2022/11/02 01:29:14;;;;;;;;;;;15.50;99.90;;;;;;4992365;28;19913;-71
2022/11/02 01:31:49;;;;;;;;;;;15.40;99.90;;;;;;5037068;28;19959;-71
2022/11/02 01:34:15;;;;;;;;;;;15.40;99.90;;;;;;5036597;28;19936;-71
2022/11/02 01:36:43;;;;;;;;;;;15.40;99.90;;;;;;5036307;28;19909;-71
2022/11/02 01:39:14;;;;;;;;;;;15.40;99.90;;;;;;5055072;28;20278;-72
2022/11/02 01:41:40;;;;;;;;;;;15.40;99.90;;;;;;5073026;28;19909;-72
2022/11/02 01:44:26;;;;;;;;;;;15.40;99.90;;;;;;5073782;28;19916;-72
2022/11/02 01:46:54;;;;;;;;;;;15.40;99.90;;;;;;5073976;28;20442;-74
2022/11/02 01:49:20;;;;;;;;;;;15.50;99.90;;;;;;5063403;28;19916;-71
2022/11/02 01:51:58;;;;;;;;;;;15.50;99.90;;;;;;5078213;28;20410;-73
2022/11/02 01:54:26;;;;;;;;;;;15.70;99.90;;;;;;5068645;28;19969;-71
2022/11/02 01:56:55;;;;;;;;;;;15.90;99.90;;;;;;5077988;28;19912;-72
2022/11/02 01:59:25;;;;;;;;;;;15.80;99.90;;;;;;5080586;28;19916;-72
2022/11/02 02:01:51;;;;;;;;;;;15.80;99.90;;;;;;5063403;28;19924;-72
2022/11/02 02:04:16;;;;;;;;;;;15.80;99.90;;;;;;5062188;28;20288;-71
2022/11/02 02:06:42;;;;;;;;;;;15.70;99.90;;;;;;5063923;28;20386;-71
2022/11/02 02:09:09;;;;;;;;;;;15.60;99.90;;;;;;5066475;28;20360;-72
2022/11/02 02:11:34;;;;;;;;;;;15.50;99.90;;;;;;5049723;28;20370;-71
2022/11/02 02:14:05;;;;;;;;;;;15.50;99.90;;;;;;5066814;28;19935;-71
2022/11/02 02:16:54;;;;;;;;;;;15.60;99.90;;;;;;5046066;28;19917;-71
2022/11/02 02:19:26;;;;;;;;;;;15.50;99.90;;;;;;5067844;28;19912;-73
2022/11/02 02:21:52;;;;;;;;;;;15.60;99.90;;;;;;5080642;28;19965;-72
2022/11/02 02:24:36;;;;;;;;;;;15.50;99.90;;;;;;5093978;28;20382;-75
2022/11/02 02:27:36;;;;;;;;;;;15.50;99.90;;;;;;5074716;28;19976;-71
2022/11/02 02:33:00;;;;;;;;;;;15.50;99.90;;;;;;5051341;28;20363;-71
2022/11/02 02:35:37;;;;;;;;;;;15.40;99.90;;;;;;5053606;28;19917;-71
2022/11/02 02:38:05;;;;;;;;;;;15.40;99.90;;;;;;5067075;28;20286;-72
2022/11/02 02:40:35;;;;;;;;;;;15.40;99.90;;;;;;5073478;28;19919;-72
2022/11/02 02:43:03;;;;;;;;;;;15.30;99.90;;;;;;5073385;28;19909;-71
2022/11/02 02:45:36;;;;;;;;;;;15.40;99.90;;;;;;5073469;28;19913;-72
2022/11/02 02:48:06;;;;;;;;;;;15.40;99.90;;;;;;5061145;28;20066;-71
2022/11/02 02:50:41;;;;;;;;;;;15.40;99.90;;;;;;5069477;28;19921;-71
2022/11/02 02:53:08;;;;;;;;;;;15.40;99.90;;;;;;5069677;28;19920;-72
2022/11/02 02:55:38;;;;;;;;;;;15.50;99.90;;;;;;5067893;28;19917;-71
2022/11/02 02:58:06;;;;;;;;;;;15.40;99.90;;;;;;5069018;28;19920;-71
2022/11/02 03:00:33;;;;;;;;;;;15.30;99.90;;;;;;5072806;28;19912;-72
2022/11/02 03:02:59;;;;;;;;;;;15.30;99.90;;;;;;5076129;28;19917;-71
2022/11/02 03:05:30;;;;;;;;;;;15.30;99.90;;;;;;5047869;28;19920;-71
2022/11/02 03:07:58;;;;;;;;;;;15.30;99.90;;;;;;5070479;28;19920;-71
2022/11/02 03:10:24;;;;;;;;;;;15.20;99.90;;;;;;5076118;28;20007;-73
2022/11/02 03:12:59;;;;;;;;;;;15.30;99.90;;;;;;5067829;28;20075;-72
2022/11/02 03:15:24;;;;;;;;;;;15.30;99.90;;;;;;5066303;28;20758;-71
2022/11/02 03:17:56;;;;;;;;;;;15.20;99.90;;;;;;5069798;28;20062;-72
2022/11/02 03:20:25;;;;;;;;;;;15.20;99.90;;;;;;5066020;28;20337;-71
2022/11/02 03:22:51;;;;;;;;;;;15.10;99.90;;;;;;5078701;28;19915;-72
2022/11/02 03:25:41;;;;;;;;;;;15.10;99.90;;;;;;5092949;28;19909;-71
2022/11/02 03:28:13;;;;;;;;;;;15.10;99.90;;;;;;5076647;28;19928;-72
2022/11/02 03:30:42;;;;;;;;;;;15.10;99.90;;;;;;5089979;28;20038;-71
2022/11/02 03:33:32;;;;;;;;;;;15.10;99.90;;;;;;5097198;28;19916;-71
2022/11/02 03:36:12;;;;;;;;;;;15.10;99.90;;;;;;5079013;28;20266;-71
2022/11/02 03:38:46;;;;;;;;;;;15.10;99.90;;;;;;5081368;28;19908;-71
2022/11/02 03:41:12;;;;;;;;;;;15.00;99.90;;;;;;5076627;28;20386;-71
2022/11/02 03:43:39;;;;;;;;;;;15.00;99.90;;;;;;5076136;28;20488;-71
2022/11/02 03:46:06;;;;;;;;;;;15.00;99.90;;;;;;5077078;28;19908;-71
2022/11/02 03:48:35;;;;;;;;;;;15.10;99.90;;;;;;5076474;28;19909;-72
2022/11/02 03:51:04;;;;;;;;;;;15.00;99.90;;;;;;5069885;28;19919;-72
2022/11/02 03:53:41;;;;;;;;;;;15.10;99.90;;;;;;5067066;28;19948;-72
2022/11/02 03:56:10;;;;;;;;;;;15.10;99.90;;;;;;5065357;28;20000;-71
2022/11/02 03:58:36;;;;;;;;;;;15.00;99.90;;;;;;5066751;28;19916;-71
2022/11/02 04:01:04;;;;;;;;;;;14.90;99.90;;;;;;5067699;28;19912;-71
2022/11/02 04:03:31;;;;;;;;;;;14.90;99.90;;;;;;5067598;28;19984;-71
2022/11/02 04:05:57;;;;;;;;;;;14.90;99.90;;;;;;5067398;28;20390;-75
2022/11/02 04:08:38;;;;;;;;;;;14.90;99.90;;;;;;5068168;28;19967;-72
2022/11/02 04:16:33;;;;;;;;;;;14.70;99.90;;;;;;5067337;28;19931;-71
2022/11/02 04:25:14;;;;;;;;;;;14.80;99.90;;;;;;5067978;28;19927;-71
2022/11/02 04:27:13;;;;;;;;;;;14.80;99.90;;;;;;5066368;28;19919;-72
2022/11/02 04:29:38;;;;;;;;;;;14.80;99.90;;;;;;5064463;28;19917;-72
2022/11/02 04:32:04;;;;;;;;;;;14.70;99.90;;;;;;5049569;28;20388;-72
2022/11/02 04:34:30;;;;;;;;;;;14.80;99.90;;;;;;5065556;28;19920;-71
2022/11/02 04:36:56;;;;;;;;;;;14.90;99.90;;;;;;5067540;28;19970;-71
2022/11/02 04:39:21;;;;;;;;;;;15.00;99.90;;;;;;5066753;28;20015;-72
2022/11/02 04:41:47;;;;;;;;;;;14.90;99.90;;;;;;5066995;28;19924;-71
2022/11/02 04:44:22;;;;;;;;;;;14.90;99.90;;;;;;5073336;28;19940;-71
2022/11/02 04:46:50;;;;;;;;;;;14.80;99.90;;;;;;5065993;28;20281;-73
2022/11/02 04:49:16;;;;;;;;;;;14.90;99.90;;;;;;5063206;28;19916;-71
2022/11/02 04:51:41;;;;;;;;;;;14.80;99.90;;;;;;5075661;28;19989;-70
2022/11/02 04:54:07;;;;;;;;;;;14.80;99.90;;;;;;5067693;28;20320;-71
2022/11/02 04:56:33;;;;;;;;;;;14.90;99.90;;;;;;5063240;28;19913;-71
2022/11/02 04:58:59;;;;;;;;;;;14.80;99.90;;;;;;5048788;28;20405;-70
2022/11/02 05:01:26;;;;;;;;;;;14.90;99.90;;;;;;5066500;28;20018;-71
2022/11/02 05:03:52;;;;;;;;;;;14.90;99.90;;;;;;5066543;28;19920;-72
2022/11/02 05:06:19;;;;;;;;;;;14.80;99.90;;;;;;5067286;28;20277;-70
2022/11/02 05:08:45;;;;;;;;;;;14.80;99.90;;;;;;5067368;28;19935;-71
2022/11/02 05:11:17;;;;;;;;;;;14.80;99.90;;;;;;5066536;28;19912;-71
2022/11/02 05:13:44;;;;;;;;;;;14.80;99.90;;;;;;5049875;28;19959;-71
2022/11/02 05:16:14;;;;;;;;;;;14.70;99.90;;;;;;5061207;28;19927;-72
2022/11/02 05:18:40;;;;;;;;;;;14.70;99.90;;;;;;5071217;28;19921;-70
2022/11/02 05:21:06;;;;;;;;;;;14.70;99.90;;;;;;5068684;28;20336;-70
2022/11/02 05:23:32;;;;;;;;;;;14.60;99.90;;;;;;5088673;28;19924;-71
2022/11/02 05:25:59;;;;;;;;;;;14.60;99.90;;;;;;5089857;28;19916;-71
2022/11/02 05:28:25;;;;;;;;;;;14.60;99.90;;;;;;5075098;28;19936;-71
2022/11/02 05:30:52;;;;;;;;;;;14.60;99.90;;;;;;5072315;28;19912;-71
2022/11/02 05:33:18;;;;;;;;;;;14.70;99.90;;;;;;5076278;28;19908;-71
2022/11/02 05:35:44;;;;;;;;;;;14.70;99.90;;;;;;5092942;28;19920;-71
2022/11/02 05:38:10;;;;;;;;;;;14.60;99.90;;;;;;5073549;28;19954;-71
2022/11/02 05:40:39;;;;;;;;;;;14.60;99.90;;;;;;5074713;28;19919;-72
2022/11/02 05:43:06;;;;;;;;;;;14.60;99.90;;;;;;5056938;28;19908;-71
2022/11/02 05:45:32;;;;;;;;;;;14.50;99.90;;;;;;5074861;28;20096;-71
2022/11/02 05:48:01;;;;;;;;;;;14.50;99.90;;;;;;5078613;28;19916;-71
2022/11/02 05:50:27;;;;;;;;;;;14.60;99.90;;;;;;5058159;28;19908;-71
2022/11/02 05:52:56;;;;;;;;;;;14.70;99.90;;;;;;5072351;28;20385;-71
2022/11/02 05:55:21;;;;;;;;;;;14.70;99.90;;;;;;5060674;28;19920;-71
2022/11/02 05:57:53;;;;;;;;;;;14.70;99.90;;;;;;5074420;28;19912;-71
2022/11/02 06:00:19;;;;;;;;;;;14.70;99.90;;;;;;5074517;28;19931;-72
2022/11/02 06:02:46;;;;;;;;;;;14.70;99.90;;;;;;5072020;28;19916;-71
2022/11/02 06:05:11;;;;;;;;;;;14.70;99.90;;;;;;5053600;28;19934;-70
2022/11/02 06:07:37;;;;;;;;;;;14.70;99.90;;;;;;5075094;28;20314;-71
2022/11/02 06:10:03;;;;;;;;;;;14.70;99.90;;;;;;5072335;28;19998;-73
2022/11/02 06:12:29;;;;;;;;;;;14.50;99.90;;;;;;5058663;28;19962;-71
2022/11/02 06:14:54;;;;;;;;;;;14.60;99.90;;;;;;5053784;28;19958;-72
2022/11/02 06:17:20;;;;;;;;;;;14.60;99.90;;;;;;5053735;28;19988;-71
2022/11/02 06:19:46;;;;;;;;;;;14.60;99.90;;;;;;5052476;28;19921;-71
2022/11/02 06:22:12;;;;;;;;;;;14.50;99.90;;;;;;5053535;28;19910;-71
2022/11/02 06:24:38;;;;;;;;;;;14.70;99.90;;;;;;5062476;28;19915;-71
2022/11/02 06:27:04;;;;;;;;;;;14.70;99.90;;;;;;5065828;28;19952;-71
2022/11/02 06:29:29;;;;;;;;;;;14.70;99.90;;;;;;5080218;28;19908;-71
2022/11/02 06:31:55;;;;;;;;;;;14.70;99.90;;;;;;5079111;28;19970;-71
2022/11/02 06:34:21;;;;;;;;;;;14.80;99.90;;;;;;5086486;28;19912;-71
2022/11/02 06:36:46;;;;;;;;;;;14.80;99.90;;;;;;5075967;28;19920;-74
2022/11/02 06:39:12;;;;;;;;;;;14.90;99.90;;;;;;5082114;28;19908;-70
2022/11/02 06:41:38;;;;;;;;;;;14.80;99.90;;;;;;5086260;28;19912;-71
2022/11/02 06:44:03;;;;;;;;;;;14.90;99.90;;;;;;5052380;28;19921;-71
2022/11/02 06:46:29;;;;;;;;;;;15.10;99.90;;;;;;5074131;28;19913;-72
2022/11/02 06:48:55;;;;;;;;;;;15.10;99.90;;;;;;5079799;28;19912;-71
2022/11/02 06:51:20;;;;;;;;;;;15.20;99.90;;;;;;5082440;28;19908;-70
2022/11/02 06:53:46;;;;;;;;;;;15.20;99.90;;;;;;5079830;28;19916;-71
2022/11/02 06:56:12;;;;;;;;;;;15.30;99.90;;;;;;5079143;28;19916;-71
2022/11/02 06:58:38;;;;;;;;;;;15.30;99.90;;;;;;5058927;28;19908;-70
2022/11/02 07:01:08;;;;;;;;;;;15.30;99.90;;;;;;5070295;28;19920;-70
2022/11/02 07:03:34;;;;;;;;;;;15.40;99.90;;;;;;5079223;28;19919;-71
2022/11/02 07:06:00;;;;;;;;;;;15.70;99.90;;;;;;5070790;28;19912;-71
2022/11/02 07:08:27;;;;;;;;;;;15.70;99.90;;;;;;5086152;28;19912;-71
2022/11/02 07:10:52;;;;;;;;;;;15.70;99.90;;;;;;5076549;28;19913;-70
2022/11/02 07:13:18;;;;;;;;;;;15.90;99.90;;;;;;5077172;28;20019;-71
2022/11/02 07:15:44;;;;;;;;;;;15.90;99.90;;;;;;5073702;28;19920;-73
2022/11/02 07:18:11;;;;;;;;;;;15.90;99.90;;;;;;5055160;28;19920;-70
2022/11/02 07:20:37;;;;;;;;;;;16.00;99.90;;;;;;5071539;28;19915;-70
2022/11/02 07:23:03;;;;;;;;;;;16.00;99.90;;;;;;5070308;28;19920;-70
2022/11/02 07:25:30;;;;;;;;;;;16.00;99.90;;;;;;5072699;28;19910;-70
2022/11/02 07:27:58;;;;;;;;;;;16.10;99.90;;;;;;5072047;28;19963;-71
2022/11/02 07:30:25;;;;;;;;;;;16.10;99.90;;;;;;5071235;28;19908;-70
2022/11/02 07:32:51;;;;;;;;;;;16.20;99.90;;;;;;5069201;28;20348;-73
2022/11/02 07:35:16;;;;;;;;;;;16.20;99.90;;;;;;5060290;28;19921;-70
2022/11/02 07:37:43;;;;;;;;;;;16.20;99.90;;;;;;5076985;28;19912;-71
2022/11/02 07:40:09;;;;;;;;;;;16.30;99.90;;;;;;5077389;28;19916;-71
2022/11/02 07:42:35;;;;;;;;;;;16.30;99.90;;;;;;5077876;28;19912;-70
2022/11/02 07:45:01;;;;;;;;;;;16.30;99.90;;;;;;5080128;28;19912;-69
2022/11/02 07:47:29;;;;;;;;;;;16.40;99.90;;;;;;5075427;28;19935;-69
2022/11/02 07:53:16;;;;;;;;;;;16.40;99.90;;;;;;5069312;28;19935;-70
2022/11/02 07:55:42;;;;;;;;;;;16.50;99.90;;;;;;5069557;28;19920;-69
2022/11/02 07:58:09;;;;;;;;;;;16.60;99.90;;;;;;5056608;28;19971;-71
2022/11/02 08:00:36;;;;;;;;;;;16.70;99.90;;;;;;5055790;28;20374;-70
2022/11/02 08:03:03;;;;;;;;;;;16.80;99.90;;;;;;5056087;28;19963;-69
2022/11/02 08:05:29;;;;;;;;;;;16.90;99.90;;;;;;5055417;28;20356;-69
2022/11/02 08:07:55;;;;;;;;;;;16.90;99.90;;;;;;5081312;28;20046;-69
2022/11/02 08:10:21;;;;;;;;;;;17.00;99.90;;;;;;5068642;28;19920;-73
2022/11/02 08:12:50;;;;;;;;;;;17.00;99.90;;;;;;5072412;28;19913;-69
2022/11/02 08:15:16;;;;;;;;;;;17.20;99.90;;;;;;5065904;28;19929;-70
2022/11/02 08:17:42;;;;;;;;;;;17.20;99.90;;;;;;5065861;28;19913;-68
2022/11/02 08:20:08;;;;;;;;;;;17.30;99.90;;;;;;5073585;28;19928;-69
2022/11/02 08:22:38;;;;;;;;;;;17.30;99.90;;;;;;5074247;28;19916;-69
2022/11/02 08:25:04;;;;;;;;;;;17.50;99.90;;;;;;5075214;28;19909;-68
2022/11/02 08:27:30;;;;;;;;;;;17.60;99.90;;;;;;5064646;28;20385;-68
2022/11/02 08:29:56;;;;;;;;;;;17.70;99.90;;;;;;5074523;28;19912;-69
2022/11/02 08:32:21;;;;;;;;;;;17.90;99.90;;;;;;5076095;28;19908;-69
2022/11/02 08:34:47;;;;;;;;;;;18.00;99.90;;;;;;5075619;28;19948;-67
2022/11/02 08:37:13;;;;;;;;;;;18.20;99.90;;;;;;5075343;28;19913;-69
2022/11/02 08:39:39;;;;;;;;;;;18.20;99.90;;;;;;5065498;28;19944;-68
2022/11/02 08:42:04;;;;;;;;;;;18.30;99.90;;;;;;5079132;28;19919;-69
2022/11/02 08:44:30;;;;;;;;;;;18.40;99.90;;;;;;5080234;28;19941;-68
2022/11/02 08:46:56;;;;;;;;;;;18.40;99.90;;;;;;5058658;28;19923;-70
2022/11/02 08:49:22;;;;;;;;;;;18.60;99.90;;;;;;5082931;28;19912;-69
2022/11/02 08:51:47;;;;;;;;;;;18.60;99.90;;;;;;5069287;28;19913;-69
2022/11/02 08:54:13;;;;;;;;;;;18.50;99.90;;;;;;5081491;28;19971;-68
2022/11/02 08:56:39;;;;;;;;;;;18.60;99.90;;;;;;5073831;28;19908;-67
2022/11/02 08:59:05;;;;;;;;;;;18.80;99.90;;;;;;5074933;28;19909;-73
2022/11/02 09:01:31;;;;;;;;;;;18.80;99.90;;;;;;5084837;28;19916;-69
2022/11/02 09:03:59;;;;;;;;;;;18.90;99.90;;;;;;5081120;28;20221;-67
2022/11/02 09:06:24;;;;;;;;;;;19.10;99.90;;;;;;5093040;28;19912;-68
2022/11/02 09:08:50;;;;;;;;;;;19.20;99.90;;;;;;5070996;28;19927;-71
2022/11/02 09:11:16;;;;;;;;;;;19.50;99.90;;;;;;5074947;28;20006;-68
2022/11/02 09:13:42;;;;;;;;;;;19.70;99.90;;;;;;5073954;28;20370;-67
2022/11/02 09:16:08;;;;;;;;;;;19.90;99.90;;;;;;5074243;28;19916;-68
2022/11/02 09:18:34;;;;;;;;;;;20.00;99.90;;;;;;5071698;28;19984;-67
2022/11/02 09:21:02;;;;;;;;;;;20.10;99.90;;;;;;5075041;28;20001;-69
2022/11/02 09:23:28;;;;;;;;;;;20.20;99.90;;;;;;5077909;28;19964;-70
2022/11/02 09:25:54;;;;;;;;;;;20.10;99.90;;;;;;5078335;28;20417;-69
2022/11/02 09:28:19;;;;;;;;;;;20.00;99.90;;;;;;5075761;28;19909;-70
2022/11/02 09:30:45;;;;;;;;;;;19.90;99.90;;;;;;5056679;28;19962;-70
2022/11/02 09:33:12;;;;;;;;;;;19.80;99.90;;;;;;5074991;28;19909;-70
2022/11/02 09:35:39;;;;;;;;;;;19.70;99.90;;;;;;5057871;28;20152;-70
2022/11/02 09:38:05;;;;;;;;;;;19.60;99.90;;;;;;5072892;28;19920;-70
2022/11/02 09:40:43;;;;;;;;;;;19.50;99.90;;;;;;5067484;28;19919;-71
2022/11/02 09:43:18;;;;;;;;;;;19.40;99.90;;;;;;5052857;28;19925;-71
2022/11/02 09:46:13;;;;;;;;;;;19.30;99.90;;;;;;5071345;28;19920;-71
2022/11/02 09:48:54;;;;;;;;;;;19.30;99.90;;;;;;5050564;28;19947;-71
2022/11/02 09:51:31;;;;;;;;;;;19.30;99.90;;;;;;5044687;28;19952;-71
2022/11/02 09:54:15;;;;;;;;;;;19.40;99.90;;;;;;5080044;28;19916;-71
2022/11/02 09:57:24;;;;;;;;;;;19.40;99.90;;;;;;5058068;28;20047;-70
2022/11/02 09:59:54;;;;;;;;;;;19.40;99.90;;;;;;5076046;28;19913;-71
2022/11/02 10:02:47;;;;;;;;;;;19.50;99.90;;;;;;5065554;28;20006;-69
2022/11/02 10:05:16;;;;;;;;;;;19.40;99.90;;;;;;5069343;28;20018;-71
2022/11/02 10:07:47;;;;;;;;;;;19.50;99.90;;;;;;5078991;28;19916;-70
2022/11/02 10:10:19;;;;;;;;;;;19.50;99.90;;;;;;5065650;28;19913;-70
2022/11/02 10:13:12;;;;;;;;;;;19.50;99.90;;;;;;5063763;28;20088;-70
2022/11/02 10:15:44;;;;;;;;;;;19.50;99.90;;;;;;5079590;28;20198;-71
2022/11/02 10:18:15;;;;;;;;;;;19.50;99.90;;;;;;5073715;28;20403;-71
2022/11/02 10:20:43;;;;;;;;;;;19.50;99.90;;;;;;5071938;28;20534;-71
2022/11/02 10:23:42;;;;;;;;;;;19.60;99.90;;;;;;5066657;28;19920;-70
2022/11/02 10:33:05;;;;;;;;;;;19.60;99.90;;;;;;4877762;29;20073;-71
2022/11/02 10:35:36;;;;;;;;;;;19.60;99.90;;;;;;4893198;29;19987;-73
2022/11/02 10:38:07;;;;;;;;;;;19.70;99.90;;;;;;4972628;28;19911;-71
2022/11/02 10:40:39;;;;;;;;;;;19.80;99.90;;;;;;4989669;28;20053;-71
2022/11/02 10:43:10;;;;;;;;;;;19.80;99.90;;;;;;5007219;28;19965;-71
2022/11/02 10:45:55;;;;;;;;;;;19.90;99.90;;;;;;5079061;28;19913;-71
2022/11/02 10:48:34;;;;;;;;;;;20.00;99.90;;;;;;5073513;28;19908;-71
2022/11/02 10:51:03;;;;;;;;;;;19.90;99.90;;;;;;5072951;28;19935;-71
2022/11/02 10:53:33;;;;;;;;;;;20.00;99.90;;;;;;5060677;28;19943;-71
2022/11/02 10:56:22;;;;;;;;;;;20.00;99.90;;;;;;5075033;28;19913;-73
2022/11/02 10:58:53;;;;;;;;;;;20.00;99.90;;;;;;5059286;28;20290;-70
2022/11/02 11:01:19;;;;;;;;;;;20.10;99.90;;;;;;5080204;28;19947;-71
2022/11/02 11:03:55;;;;;;;;;;;20.10;99.90;;;;;;5089584;28;20341;-70
2022/11/02 11:06:26;;;;;;;;;;;20.20;99.90;;;;;;5090663;28;19908;-70
2022/11/02 11:08:57;;;;;;;;;;;20.10;99.90;;;;;;5073045;28;19912;-71
2022/11/02 11:11:24;;;;;;;;;;;20.10;99.90;;;;;;5075100;28;19912;-71
2022/11/02 11:13:55;;;;;;;;;;;20.10;99.90;;;;;;5087047;28;20406;-71
2022/11/02 11:16:32;;;;;;;;;;;20.10;99.90;;;;;;5097153;28;19939;-71
2022/11/02 11:18:58;;;;;;;;;;;20.20;99.90;;;;;;5080741;28;19909;-70
2022/11/02 11:21:34;;;;;;;;;;;20.30;99.90;;;;;;5076616;28;19919;-71
2022/11/02 11:24:18;;;;;;;;;;;20.20;99.90;;;;;;5074848;28;19919;-70
2022/11/02 11:26:44;;;;;;;;;;;20.30;99.90;;;;;;5058619;28;19915;-71
2022/11/02 11:29:33;;;;;;;;;;;20.30;99.90;;;;;;5077390;28;19975;-71
2022/11/02 11:32:00;;;;;;;;;;;20.30;99.90;;;;;;5066452;28;19962;-63
2022/11/02 11:34:30;;;;;;;;;;;20.30;99.90;;;;;;5070548;28;19913;-62
2022/11/02 11:37:07;;;;;;;;;;;20.30;99.90;;;;;;5081003;28;20010;-63
2022/11/02 11:39:33;;;;;;;;;;;20.30;99.90;;;;;;5086392;28;20411;-61
2022/11/02 11:42:01;;;;;;;;;;;20.20;99.90;;;;;;5064687;28;19966;-62
2022/11/02 11:44:26;;;;;;;;;;;20.40;99.90;;;;;;5078472;28;20396;-61
2022/11/02 11:46:55;;;;;;;;;;;20.60;99.90;;;;;;5072633;28;20008;-70
2022/11/02 11:49:21;;;;;;;;;;;20.70;99.90;;;;;;5076759;28;19912;-70
2022/11/02 11:51:49;;;;;;;;;;;20.70;99.90;;;;;;5090209;28;20000;-71
2022/11/02 11:55:45;;;;;;;;;;;;;;;;;;;;;
2022/11/02 11:57:33;;;;;;;;;;;20.50;99.90;;;;;;5066919;28;19916;-70
2022/11/02 12:00:03;;;;;;;;;;;20.40;99.90;;;;;;5074057;28;20005;-70
2022/11/02 12:02:32;;;;;;;;;;;20.50;99.90;;;;;;5086473;28;20270;-69
2022/11/02 12:05:01;;;;;;;;;;;20.50;99.90;;;;;;5087026;28;20344;-70
2022/11/02 12:07:37;;;;;;;;;;;20.40;99.90;;;;;;5078087;28;19997;-69
2022/11/02 12:10:14;;;;;;;;;;;20.30;99.90;;;;;;5071010;28;20147;-70
2022/11/02 12:12:47;;;;;;;;;;;20.30;99.90;;;;;;5070971;28;19959;-70
2022/11/02 12:15:19;;;;;;;;;;;20.30;99.90;;;;;;5087048;28;19920;-70
2022/11/02 12:17:51;;;;;;;;;;;20.40;99.90;;;;;;5068212;28;19912;-70
2022/11/02 12:20:33;;;;;;;;;;;20.40;99.90;;;;;;5081082;28;19913;-70
2022/11/02 12:23:16;;;;;;;;;;;20.40;99.90;;;;;;5055327;28;19960;-71
2022/11/02 12:25:41;;;;;;;;;;;20.40;99.90;;;;;;5060995;28;20359;-70
2022/11/02 12:28:26;;;;;;;;;;;20.50;99.90;;;;;;5071084;28;19917;-70
2022/11/02 12:30:59;;;;;;;;;;;20.60;99.90;;;;;;5069255;28;19915;-70
2022/11/02 12:33:34;;;;;;;;;;;20.60;99.90;;;;;;5086787;28;19912;-70
2022/11/02 12:36:00;;;;;;;;;;;20.60;99.90;;;;;;5043010;28;19928;-70
2022/11/02 12:38:29;;;;;;;;;;;20.50;99.90;;;;;;5079236;28;19916;-70
2022/11/02 12:41:17;;;;;;;;;;;20.40;99.90;;;;;;5048118;28;20075;-70
2022/11/02 12:43:47;;;;;;;;;;;20.50;99.90;;;;;;5053241;28;19912;-70
2022/11/02 12:46:22;;;;;;;;;;;20.40;99.90;;;;;;5062600;28;19955;-69
2022/11/02 12:49:05;;;;;;;;;;;20.50;99.90;;;;;;5070934;28;19966;-70
2022/11/02 12:51:50;;;;;;;;;;;20.40;99.90;;;;;;5076141;28;19912;-70
2022/11/02 12:54:40;;;;;;;;;;;20.40;99.90;;;;;;5065261;28;19912;-70
2022/11/02 12:57:10;;;;;;;;;;;20.40;99.90;;;;;;5078034;28;20028;-70
2022/11/02 13:03:09;;;;;;;;;;;20.50;99.90;;;;;;4981959;28;19928;-69
2022/11/02 13:05:38;;;;;;;;;;;20.40;99.90;;;;;;4988692;28;19921;-70
2022/11/02 13:08:36;;;;;;;;;;;20.30;99.90;;;;;;5020303;28;19919;-70
2022/11/02 13:11:10;;;;;;;;;;;20.30;99.90;;;;;;5033033;28;19916;-70
2022/11/02 13:13:40;;;;;;;;;;;20.30;99.90;;;;;;5074525;28;19919;-70
2022/11/02 13:16:07;;;;;;;;;;;20.30;99.90;;;;;;5057303;28;19916;-69
2022/11/02 13:18:47;;;;;;;;;;;20.30;99.90;;;;;;5074165;28;19919;-70
2022/11/02 13:21:14;;;;;;;;;;;20.30;99.90;;;;;;5079939;28;20354;-70
2022/11/02 13:23:49;;;;;;;;;;;20.30;99.90;;;;;;5083120;28;19913;-70
2022/11/02 13:26:18;;;;;;;;;;;20.30;99.90;;;;;;5073056;28;19908;-70
2022/11/02 13:28:46;;;;;;;;;;;20.30;99.90;;;;;;5084698;28;19913;-70
2022/11/02 13:31:24;;;;;;;;;;;20.30;99.90;;;;;;5073857;28;20375;-71
2022/11/02 13:33:52;;;;;;;;;;;20.30;99.90;;;;;;5077568;28;19920;-71
2022/11/02 13:36:18;;;;;;;;;;;20.30;99.90;;;;;;5073582;28;19916;-70
2022/11/02 13:38:44;;;;;;;;;;;20.20;99.90;;;;;;5070174;28;19958;-70
2022/11/02 13:41:19;;;;;;;;;;;20.10;99.90;;;;;;5055699;28;19919;-71
2022/11/02 13:43:50;;;;;;;;;;;20.10;99.90;;;;;;5077352;28;19917;-70
2022/11/02 13:46:40;;;;;;;;;;;20.00;99.90;;;;;;5069859;28;20394;-70
2022/11/02 13:49:56;;;;;;;;;;;;;;;;;;;;;
2022/11/02 13:52:38;;;;;;;;;;;20.00;99.90;;;;;;5010871;28;19919;-70
2022/11/02 13:55:06;;;;;;;;;;;19.80;99.90;;;;;;5008497;28;20363;-69
2022/11/02 13:57:33;;;;;;;;;;;19.60;99.90;;;;;;5083682;28;19912;-70
2022/11/02 14:00:04;;;;;;;;;;;19.60;99.90;;;;;;5081131;28;20015;-69
2022/11/02 14:02:33;;;;;;;;;;;19.50;99.90;;;;;;5062380;28;19961;-70
2022/11/02 14:04:59;;;;;;;;;;;19.60;99.90;;;;;;5081494;28;19908;-69
2022/11/02 14:07:31;;;;;;;;;;;19.60;99.90;;;;;;5064447;28;19912;-69
2022/11/02 14:10:00;;;;;;;;;;;19.50;99.90;;;;;;5076335;28;19920;-69
2022/11/02 14:12:27;;;;;;;;;;;19.50;99.90;;;;;;5056716;28;19923;-69
2022/11/02 14:15:11;;;;;;;;;;;19.60;99.90;;;;;;5076275;28;19916;-70
2022/11/02 14:17:52;;;;;;;;;;;19.60;99.90;;;;;;5076749;28;19912;-69
2022/11/02 14:20:35;;;;;;;;;;;19.50;99.90;;;;;;5073702;28;20007;-69
2022/11/02 14:23:09;;;;;;;;;;;19.50;99.90;;;;;;5058685;28;19912;-69
2022/11/02 14:25:44;;;;;;;;;;;19.50;99.90;;;;;;5055964;28;20144;-70
2022/11/02 14:28:19;;;;;;;;;;;19.40;99.90;;;;;;5075443;28;20322;-69
2022/11/02 14:30:48;;;;;;;;;;;19.40;99.90;;;;;;5070148;28;19939;-69
2022/11/02 14:33:27;;;;;;;;;;;19.30;99.90;;;;;;5074940;28;20003;-71
2022/11/02 14:36:01;;;;;;;;;;;19.30;99.90;;;;;;5091347;28;20020;-70
2022/11/02 14:38:38;;;;;;;;;;;19.30;99.90;;;;;;5071703;28;19985;-70
2022/11/02 14:41:24;;;;;;;;;;;19.30;99.90;;;;;;5071828;28;19912;-70
2022/11/02 14:44:01;;;;;;;;;;;19.30;99.90;;;;;;5078660;28;19948;-70
2022/11/02 14:46:43;;;;;;;;;;;19.20;99.90;;;;;;5078341;28;19912;-69
2022/11/02 14:49:35;;;;;;;;;;;19.20;99.90;;;;;;5077135;28;19954;-69
2022/11/02 14:52:00;;;;;;;;;;;19.20;99.90;;;;;;5035701;28;19999;-70
2022/11/02 14:54:27;;;;;;;;;;;19.20;99.90;;;;;;5077742;28;19971;-70
2022/11/02 14:56:55;;;;;;;;;;;19.20;99.90;;;;;;5096589;28;19953;-70
2022/11/02 14:59:30;;;;;;;;;;;19.10;99.90;;;;;;5076471;28;20313;-70
2022/11/02 15:02:00;;;;;;;;;;;19.10;99.90;;;;;;5075199;28;19971;-69
2022/11/02 15:04:27;;;;;;;;;;;19.10;99.90;;;;;;5076063;28;19919;-71